Time;durP1;ratioP1;P1;durP2;ratioP2;P2;SDS_P1;SDS_P2;PMS_P1;PMS_P2;Temp;Humidity;BMP_temperature;BMP_pressure;BME280_temperature;BME280_humidity;BME280_pressure;Samples;Min_cycle;Max_cycle;Signal;HPM_P1;HPM_P2
2023/04/10 00:00:42;;;;;;;49.95;30.85;;;;;;;;;;6183212;23;20020;-81
2023/04/10 00:03:26;;;;;;;53.22;31.95;;;;;;;;;;6182947;23;20016;-81
2023/04/10 00:06:11;;;;;;;60.08;32.78;;;;;;;;;;6182485;23;20027;-83
2023/04/10 00:08:56;;;;;;;54.42;33.45;;;;;;;;;;6181823;23;20103;-81
2023/04/10 00:11:41;;;;;;;51.05;31.00;;;;;;;;;;6184054;23;20115;-81
2023/04/10 00:14:25;;;;;;;57.10;32.42;;;;;;;;;;6184495;23;20044;-81
2023/04/10 00:17:10;;;;;;;55.33;33.60;;;;;;;;;;6184307;23;20012;-81
2023/04/10 00:19:55;;;;;;;58.80;34.78;;;;;;;;;;6185095;23;20071;-81
2023/04/10 00:22:40;;;;;;;60.72;33.40;;;;;;;;;;6184881;23;20023;-82
2023/04/10 00:25:25;;;;;;;58.13;33.45;;;;;;;;;;6184371;23;20828;-81
2023/04/10 00:28:10;;;;;;;53.47;32.80;;;;;;;;;;6184391;23;20387;-82
2023/04/10 00:30:55;;;;;;;58.03;34.55;;;;;;;;;;6184945;23;20100;-81
2023/04/10 00:33:39;;;;;;;58.13;36.45;;;;;;;;;;6184987;23;20048;-82
2023/04/10 00:36:25;;;;;;;66.43;36.47;;;;;;;;;;6184267;23;20087;-82
2023/04/10 00:39:11;;;;;;;63.50;37.10;;;;;;;;;;6182769;23;20032;-82
2023/04/10 00:41:56;;;;;;;59.58;34.97;;;;;;;;;;6184894;23;20466;-82
2023/04/10 00:44:41;;;;;;;60.38;36.40;;;;;;;;;;6162651;23;20035;-82
2023/04/10 00:47:25;;;;;;;62.05;37.17;;;;;;;;;;6184204;23;20061;-81
2023/04/10 00:50:11;;;;;;;60.33;36.28;;;;;;;;;;6184255;23;20024;-82
2023/04/10 00:52:56;;;;;;;69.70;37.10;;;;;;;;;;6184733;23;20055;-81
2023/04/10 00:55:40;;;;;;;65.80;37.70;;;;;;;;;;6183512;23;20016;-81
2023/04/10 00:58:25;;;;;;;66.25;38.17;;;;;;;;;;6183852;23;20024;-82
2023/04/10 01:01:10;;;;;;;69.72;39.15;;;;;;;;;;6162031;23;20073;-83
2023/04/10 01:03:55;;;;;;;62.03;36.42;;;;;;;;;;6184539;23;20016;-81
2023/04/10 01:07:02;;;;;;;64.30;40.38;;;7.80;99.90;;;;;;6184643;23;20016;-81
2023/04/10 01:09:53;;;;;;;59.95;37.25;;;;;;;;;;6183186;23;20024;-81
2023/04/10 01:12:44;;;;;;;65.53;38.45;;;;;;;;;;6183252;23;20017;-82
2023/04/10 01:15:34;;;;;;;59.80;36.90;;;7.70;99.90;;;;;;6183884;23;20020;-81
2023/04/10 01:18:21;;;;;;;59.38;36.85;;;;;;;;;;6183864;23;20043;-82
2023/04/10 01:21:08;;;;;;;60.90;35.80;;;;;;;;;;6184415;23;20077;-81
2023/04/10 01:24:11;;;;;;;64.00;39.55;;;;;;;;;;6184188;23;20016;-81
2023/04/10 01:27:22;;;;;;;67.20;39.97;;;7.70;99.90;;;;;;6183249;23;20092;-81
2023/04/10 01:30:11;;;;;;;66.88;38.50;;;;;;;;;;6184401;23;20059;-81
2023/04/10 01:32:59;;;;;;;67.32;38.95;;;7.60;99.90;;;;;;6184267;23;20514;-82
2023/04/10 01:35:48;;;;;;;67.30;40.40;;;;;;;;;;6184402;23;20012;-81
2023/04/10 01:38:32;;;;;;;62.45;40.35;;;;;;;;;;6182167;23;20015;-81
2023/04/10 01:41:18;;;;;;;68.65;40.38;;;;;;;;;;6183500;23;20020;-82
2023/04/10 01:44:04;;;;;;;66.88;39.85;;;;;;;;;;6184443;23;20019;-81
2023/04/10 01:46:49;;;;;;;67.47;39.05;;;;;;;;;;6183025;23;20024;-81
2023/04/10 01:49:36;;;;;;;65.97;41.13;;;;;;;;;;6183523;23;20653;-82
2023/04/10 01:52:22;;;;;;;71.50;41.13;;;;;;;;;;6183485;23;20032;-81
2023/04/10 01:55:07;;;;;;;64.47;40.92;;;;;;;;;;6182891;23;20012;-81
2023/04/10 01:57:52;;;;;;;68.25;41.58;;;;;;;;;;6182597;23;20455;-81
2023/04/10 02:00:38;;;;;;;66.00;39.28;;;;;;;;;;6183338;23;20035;-81
2023/04/10 02:03:22;;;;;;;67.60;40.25;;;;;;;;;;6183303;23;20397;-81
2023/04/10 02:06:36;;;;;;;64.20;39.58;;;7.50;99.90;;;;;;6183994;23;20051;-81
2023/04/10 02:09:45;;;;;;;71.57;40.35;;;;;;;;;;6181729;23;20048;-81
2023/04/10 02:12:31;;;;;;;68.95;40.53;;;;;;;;;;6183091;23;20063;-81
2023/04/10 02:15:19;;;;;;;66.13;39.90;;;;;;;;;;6182937;23;20019;-82
2023/04/10 02:18:05;;;;;;;68.72;41.28;;;;;;;;;;6183716;23;20016;-82
2023/04/10 02:20:51;;;;;;;65.45;40.35;;;;;;;;;;6183868;23;20095;-81
2023/04/10 02:23:36;;;;;;;69.57;41.47;;;;;;;;;;6183151;23;20055;-82
2023/04/10 02:26:20;;;;;;;65.35;39.75;;;;;;;;;;6183414;23;20020;-83
2023/04/10 02:29:05;;;;;;;64.30;39.83;;;;;;;;;;6183849;23;20071;-81
2023/04/10 02:31:49;;;;;;;65.32;39.33;;;;;;;;;;6182539;23;20064;-82
2023/04/10 02:34:34;;;;;;;67.53;40.65;;;;;;;;;;6181402;23;20012;-82
2023/04/10 02:37:18;;;;;;;64.35;39.63;;;;;;;;;;6183698;23;20063;-82
2023/04/10 02:40:03;;;;;;;66.38;40.97;;;;;;;;;;6183757;23;20043;-82
2023/04/10 02:42:47;;;;;;;66.55;41.22;;;;;;;;;;6183596;23;20019;-82
2023/04/10 02:45:32;;;;;;;71.28;40.63;;;;;;;;;;6183182;23;20076;-82
2023/04/10 02:48:17;;;;;;;66.70;41.03;;;;;;;;;;6183599;23;20023;-82
2023/04/10 02:51:02;;;;;;;67.05;39.92;;;;;;;;;;6182626;23;20024;-82
2023/04/10 02:53:47;;;;;;;65.60;40.38;;;;;;;;;;6183216;23;20019;-81
2023/04/10 02:56:35;;;;;;;66.00;39.92;;;;;;;;;;6181620;23;20391;-82
2023/04/10 02:59:20;;;;;;;68.40;40.28;;;;;;;;;;6183669;23;20015;-81
2023/04/10 03:02:06;;;;;;;67.55;40.33;;;;;;;;;;6182207;23;20085;-82
2023/04/10 03:04:52;;;;;;;70.15;40.97;;;;;;;;;;6183298;23;20132;-82
2023/04/10 03:07:36;;;;;;;68.53;40.80;;;;;;;;;;6182845;23;20024;-82
2023/04/10 03:10:21;;;;;;;63.97;38.08;;;;;;;;;;6183147;23;20075;-81
2023/04/10 03:13:06;;;;;;;66.38;39.83;;;;;;;;;;6183543;23;20024;-82
2023/04/10 03:15:51;;;;;;;64.57;39.08;;;;;;;;;;6183021;23;20059;-81
2023/04/10 03:18:35;;;;;;;67.63;40.25;;;;;;;;;;6182827;23;20159;-82
2023/04/10 03:21:20;;;;;;;66.43;37.80;;;;;;;;;;6182259;23;20056;-81
2023/04/10 03:24:05;;;;;;;69.55;39.47;;;;;;;;;;6183338;23;20016;-81
2023/04/10 03:26:50;;;;;;;67.88;40.33;;;;;;;;;;6182779;23;20020;-82
2023/04/10 03:29:35;;;;;;;65.78;39.40;;;;;;;;;;6182783;23;20032;-82
2023/04/10 03:32:20;;;;;;;65.72;39.53;;;;;;;;;;6183401;23;20011;-83
2023/04/10 03:35:04;;;;;;;70.38;41.42;;;;;;;;;;6183503;23;20442;-81
2023/04/10 03:37:49;;;;;;;64.40;37.08;;;;;;;;;;6181354;23;20326;-82
2023/04/10 03:40:34;;;;;;;65.32;37.92;;;;;;;;;;6182801;23;20063;-82
2023/04/10 03:43:19;;;;;;;65.47;36.70;;;;;;;;;;6182202;23;20167;-81
2023/04/10 03:46:03;;;;;;;66.20;37.13;;;;;;;;;;6182435;23;20439;-81
2023/04/10 03:48:49;;;;;;;64.95;37.03;;;;;;;;;;6184606;23;20068;-82
2023/04/10 03:51:34;;;;;;;62.22;37.05;;;;;;;;;;6184609;23;20051;-82
2023/04/10 03:54:19;;;;;;;67.47;37.17;;;;;;;;;;6185359;23;20016;-81
2023/04/10 03:57:04;;;;;;;62.38;38.90;;;;;;;;;;6184158;23;20016;-81
2023/04/10 03:59:50;;;;;;;60.50;37.75;;;;;;;;;;6183172;23;20063;-82
2023/04/10 04:02:35;;;;;;;57.60;35.42;;;;;;;;;;6184579;23;20064;-82
2023/04/10 04:05:19;;;;;;;61.65;37.88;;;;;;;;;;6185167;23;20079;-81
2023/04/10 04:08:05;;;;;;;64.18;38.35;;;;;;;;;;6183846;23;20051;-82
2023/04/10 04:10:49;;;;;;;62.67;37.33;;;;;;;;;;6182899;23;20024;-82
2023/04/10 04:13:34;;;;;;;69.00;38.40;;;;;;;;;;6184660;23;20075;-84
2023/04/10 04:16:19;;;;;;;67.43;39.63;;;;;;;;;;6183878;23;20075;-81
2023/04/10 04:19:04;;;;;;;67.65;38.75;;;;;;;;;;6183688;23;20024;-81
2023/04/10 04:21:48;;;;;;;62.22;38.45;;;;;;;;;;6183121;23;20336;-82
2023/04/10 04:24:32;;;;;;;68.57;40.10;;;;;;;;;;6185099;23;20379;-81
2023/04/10 04:27:20;;;;;;;65.93;38.53;;;;;;;;;;6184903;23;20020;-81
2023/04/10 04:30:05;;;;;;;66.28;38.72;;;;;;;;;;6183744;23;20012;-81
2023/04/10 04:32:50;;;;;;;70.85;39.97;;;;;;;;;;6161971;23;20020;-81
2023/04/10 04:35:34;;;;;;;65.68;40.10;;;;;;;;;;6184993;23;20016;-81
2023/04/10 04:38:19;;;;;;;62.63;37.75;;;;;;;;;;6183590;23;20020;-82
2023/04/10 04:41:04;;;;;;;60.88;37.00;;;;;;;;;;6184797;23;20066;-82
2023/04/10 04:43:50;;;;;;;65.78;38.75;;;;;;;;;;6184259;23;20054;-82
2023/04/10 04:46:34;;;;;;;60.13;37.05;;;;;;;;;;6183495;23;20020;-81
2023/04/10 04:49:19;;;;;;;58.25;36.85;;;;;;;;;;6184786;23;20020;-82
2023/04/10 04:52:04;;;;;;;58.85;37.08;;;;;;;;;;6183284;23;20457;-81
2023/04/10 04:54:49;;;;;;;63.85;38.60;;;;;;;;;;6184073;23;20020;-81
2023/04/10 04:57:33;;;;;;;56.50;36.97;;;;;;;;;;6162037;23;20504;-82
2023/04/10 05:00:18;;;;;;;58.00;35.92;;;;;;;;;;6183418;23;20036;-81
2023/04/10 05:03:02;;;;;;;59.92;36.90;;;;;;;;;;6182737;23;20068;-81
2023/04/10 05:05:47;;;;;;;59.97;36.05;;;;;;;;;;6182638;23;20015;-81
2023/04/10 05:08:32;;;;;;;54.42;35.95;;;;;;;;;;6183123;23;20023;-81
2023/04/10 05:11:16;;;;;;;62.85;36.58;;;;;;;;;;6183093;23;20094;-81
2023/04/10 05:14:01;;;;;;;58.33;37.42;;;;;;;;;;6183956;23;20144;-82
2023/04/10 05:16:45;;;;;;;58.47;36.53;;;;;;;;;;6183934;23;20344;-82
2023/04/10 05:19:30;;;;;;;58.08;34.13;;;;;;;;;;6184456;23;20079;-82
2023/04/10 05:22:14;;;;;;;60.22;36.17;;;;;;;;;;6183069;23;20487;-81
2023/04/10 05:24:59;;;;;;;65.45;37.00;;;;;;;;;;6183967;23;20012;-82
2023/04/10 05:27:43;;;;;;;57.67;33.20;;;;;;;;;;6182990;23;20020;-84
2023/04/10 05:30:28;;;;;;;58.75;35.92;;;;;;;;;;6184455;23;20020;-81
2023/04/10 05:33:12;;;;;;;52.83;32.15;;;;;;;;;;6184295;23;20095;-82
2023/04/10 05:35:57;;;;;;;54.65;33.78;;;;;;;;;;6182444;23;20340;-81
2023/04/10 05:38:41;;;;;;;58.00;34.08;;;;;;;;;;6182954;23;20072;-82
2023/04/10 05:41:26;;;;;;;56.78;34.13;;;;;;;;;;6184318;23;20024;-82
2023/04/10 05:44:10;;;;;;;56.05;33.65;;;;;;;;;;6182883;23;20048;-83
2023/04/10 05:46:55;;;;;;;56.65;34.17;;;;;;;;;;6182390;23;20020;-82
2023/04/10 05:49:39;;;;;;;56.92;35.03;;;;;;;;;;6184124;23;20024;-81
2023/04/10 05:52:24;;;;;;;57.53;33.95;;;;;;;;;;6184296;23;20447;-81
2023/04/10 05:55:08;;;;;;;56.05;33.33;;;;;;;;;;6183524;23;20020;-81
2023/04/10 05:57:53;;;;;;;54.35;33.47;;;;;;;;;;6182136;23;20111;-82
2023/04/10 06:00:38;;;;;;;59.13;35.00;;;;;;;;;;6184173;23;20083;-84
2023/04/10 06:03:22;;;;;;;51.25;32.40;;;;;;;;;;6182917;23;20016;-83
2023/04/10 06:06:07;;;;;;;59.33;34.35;;;;;;;;;;6183479;23;20040;-82
2023/04/10 06:08:52;;;;;;;56.42;32.85;;;;;;;;;;6183336;23;20020;-84
2023/04/10 06:11:37;;;;;;;53.90;33.22;;;;;;;;;;6183680;23;20040;-83
2023/04/10 06:14:22;;;;;;;55.47;33.58;;;8.50;99.90;;;;;;6183521;23;20021;-82
2023/04/10 06:17:06;;;;;;;55.80;33.00;;;;;;;;;;6182977;23;20099;-83
2023/04/10 06:19:51;;;;;;;54.35;34.63;;;;;;;;;;6182032;23;20339;-87
2023/04/10 06:22:36;;;;;;;54.53;33.20;;;;;;;;;;6183843;23;20024;-83
2023/04/10 06:25:20;;;;;;;51.60;31.50;;;;;;;;;;6183895;23;20063;-83
2023/04/10 06:28:07;;;;;;;51.97;32.72;;;;;;;;;;6182018;23;20051;-83
2023/04/10 06:30:52;;;;;;;51.05;33.30;;;;;;;;;;6183241;23;20106;-86
2023/04/10 06:33:36;;;;;;;57.92;33.72;;;;;;;;;;6183719;23;20103;-83
2023/04/10 06:36:21;;;;;;;54.13;33.53;;;;;;;;;;6183743;23;20047;-83
2023/04/10 06:39:05;;;;;;;53.53;32.67;;;;;;;;;;6182953;23;20383;-83
2023/04/10 06:41:50;;;;;;;55.65;33.15;;;;;;;;;;6182507;23;20096;-84
2023/04/10 06:44:35;;;;;;;53.72;31.77;;;;;;;;;;6182429;23;20113;-84
2023/04/10 06:47:19;;;;;;;48.03;31.92;;;;;;;;;;6183360;23;20023;-84
2023/04/10 06:50:05;;;;;;;51.90;31.15;;;;;;;;;;6182778;23;20067;-84
2023/04/10 06:52:51;;;;;;;51.55;31.35;;;;;;;;;;6182329;23;20020;-84
2023/04/10 06:55:37;;;;;;;56.03;33.28;;;;;;;;;;6182181;23;20075;-86
2023/04/10 06:58:23;;;;;;;50.92;30.98;;;;;;;;;;6183347;23;20020;-83
2023/04/10 07:01:07;;;;;;;47.63;30.15;;;;;;;;;;6182984;23;20510;-83
2023/04/10 07:03:52;;;;;;;51.03;31.17;;;;;;;;;;6183592;23;20059;-83
2023/04/10 07:06:36;;;;;;;46.88;28.83;;;;;;;;;;6182244;23;20069;-83
2023/04/10 07:09:21;;;;;;;49.70;29.80;;;;;;;;;;6181540;23;20098;-82
2023/04/10 07:12:05;;;;;;;47.45;29.58;;;;;;;;;;6160468;23;20083;-83
2023/04/10 07:14:50;;;;;;;49.35;30.33;;;;;;;;;;6182907;23;20020;-82
2023/04/10 07:17:35;;;;;;;48.65;29.27;;;;;;;;;;6183435;23;20455;-82
2023/04/10 07:20:19;;;;;;;49.92;29.38;;;;;;;;;;6160682;23;20028;-82
2023/04/10 07:23:04;;;;;;;46.20;28.45;;;;;;;;;;6182680;23;20016;-82
2023/04/10 07:25:48;;;;;;;53.42;30.42;;;;;;;;;;6161024;23;20017;-83
2023/04/10 07:28:33;;;;;;;48.20;29.42;;;;;;;;;;6183492;23;20019;-82
2023/04/10 07:31:17;;;;;;;50.53;29.25;;;;;;;;;;6160532;23;20043;-83
2023/04/10 07:34:02;;;;;;;44.95;28.42;;;;;;;;;;6161024;23;20089;-87
2023/04/10 07:36:47;;;;;;;50.45;29.35;;;;;;;;;;6183412;23;20066;-83
2023/04/10 07:39:32;;;;;;;52.88;29.30;;;;;;;;;;6183069;23;20071;-83
2023/04/10 07:42:16;;;;;;;45.70;29.00;;;;;;;;;;6160250;23;20028;-83
2023/04/10 07:45:01;;;;;;;48.58;28.13;;;;;;;;;;6183386;23;20024;-84
2023/04/10 07:47:46;;;;;;;43.72;27.85;;;;;;;;;;6183251;23;20063;-84
2023/04/10 07:50:31;;;;;;;42.17;27.50;;;;;;;;;;6183066;23;20020;-83
2023/04/10 07:53:15;;;;;;;45.55;25.95;;;;;;;;;;6182692;23;20020;-82
2023/04/10 07:56:00;;;;;;;41.83;25.70;;;;;;;;;;6183313;23;20507;-82
2023/04/10 07:58:45;;;;;;;41.42;25.65;;;;;;;;;;6183002;23;20016;-84
2023/04/10 08:01:30;;;;;;;40.45;25.65;;;;;;;;;;6160378;23;20031;-81
2023/04/10 08:04:14;;;;;;;40.17;25.63;;;;;;;;;;6160395;23;20020;-83
2023/04/10 08:07:00;;;;;;;39.97;25.00;;;;;;;;;;6160865;23;20070;-83
2023/04/10 08:09:44;;;;;;;36.67;24.15;;;;;;;;;;6160459;23;20055;-82
2023/04/10 08:12:30;;;;;;;39.55;23.63;;;;;;;;;;6182558;23;20056;-83
2023/04/10 08:15:15;;;;;;;37.42;22.95;;;;;;;;;;6182155;23;20012;-83
2023/04/10 08:18:00;;;;;;;36.42;23.48;;;;;;;;;;6182697;23;20020;-86
2023/04/10 08:20:44;;;;;;;39.17;22.70;;;;;;;;;;6182859;23;20511;-83
2023/04/10 08:23:29;;;;;;;35.17;23.48;;;;;;;;;;6182542;23;20112;-83
2023/04/10 08:26:14;;;;;;;33.65;23.08;;;;;;;;;;6181216;23;20462;-83
2023/04/10 08:28:59;;;;;;;36.17;23.33;;;;;;;;;;6183118;23;20108;-82
2023/04/10 08:31:44;;;;;;;37.17;22.95;;;;;;;;;;6181901;23;20056;-83
2023/04/10 08:34:28;;;;;;;34.13;22.48;;;;;;;;;;6183842;23;20446;-82
2023/04/10 08:37:14;;;;;;;34.97;21.95;;;;;;;;;;6183197;23;20092;-85
2023/04/10 08:39:59;;;;;;;32.45;21.70;;;;;;;;;;6184966;23;20064;-82
2023/04/10 08:42:43;;;;;;;35.58;23.40;;;;;;;;;;6184839;23;20024;-83
2023/04/10 08:45:28;;;;;;;32.47;21.90;;;;;;;;;;6183028;23;20016;-83
2023/04/10 08:48:14;;;;;;;32.63;21.48;;;;;;;;;;6162413;23;20107;-84
2023/04/10 08:51:00;;;;;;;37.53;21.52;;;;;;;;;;6183628;23;20332;-83
2023/04/10 08:53:45;;;;;;;30.98;19.92;;;;;;;;;;6184876;23;20136;-82
2023/04/10 08:56:30;;;;;;;29.80;20.15;;;;;;;;;;6183982;23;20016;-82
2023/04/10 08:59:15;;;;;;;28.50;18.33;;;;;;;;;;6182999;23;20020;-85
2023/04/10 09:02:00;;;;;;;24.58;17.15;;;;;;;;;;6183471;23;20140;-83
2023/04/10 09:04:54;;;;;;;26.33;16.42;;;14.60;92.00;;;;;;6184553;23;20509;-83
2023/04/10 09:07:39;;;;;;;26.70;16.73;;;;;;;;;;6184112;23;20032;-83
2023/04/10 09:10:24;;;;;;;23.27;16.15;;;;;;;;;;6183919;23;20028;-83
2023/04/10 09:13:08;;;;;;;23.77;15.60;;;;;;;;;;6184674;23;20067;-83
2023/04/10 09:15:57;;;;;;;23.92;15.60;;;;;;;;;;6184656;23;20055;-82
2023/04/10 09:18:42;;;;;;;23.63;15.13;;;;;;;;;;6184908;23;20348;-82
2023/04/10 09:21:27;;;;;;;22.08;14.05;;;;;;;;;;6182701;23;20020;-83
2023/04/10 09:24:12;;;;;;;19.33;13.60;;;;;;;;;;6184459;23;20020;-82
2023/04/10 09:26:57;;;;;;;18.58;13.27;;;;;;;;;;6184503;23;20023;-83
2023/04/10 09:29:50;;;;;;;21.02;13.18;;;;;;;;;;6183926;23;20087;-83
2023/04/10 09:32:37;;;;;;;18.20;12.43;;;;;;;;;;6183788;23;20012;-83
2023/04/10 09:35:22;;;;;;;18.75;12.15;;;;;;;;;;6183841;23;20272;-83
2023/04/10 09:38:20;;;;;;;17.52;11.10;;;;;;;;;;6184120;23;20078;-84
2023/04/10 09:41:08;;;;;;;16.88;11.15;;;;;;;;;;6182939;23;20045;-82
2023/04/10 09:44:06;;;;;;;15.75;11.27;;;;;;;;;;6184104;23;20533;-83
2023/04/10 09:46:50;;;;;;;16.05;11.35;;;;;;;;;;6184276;23;20031;-82
2023/04/10 09:50:04;;;;;;;16.13;11.93;;;;;;;;;;6182268;23;20063;-82
2023/04/10 09:52:56;;;;;;;16.70;11.02;;;;;;;;;;6173536;23;20012;-82
2023/04/10 09:55:42;;;;;;;17.52;11.75;;;;;;;;;;6183618;23;20020;-82
2023/04/10 09:58:27;;;;;;;14.40;10.65;;;;;;;;;;6183352;23;20024;-83
2023/04/10 10:01:12;;;;;;;16.17;10.40;;;;;;;;;;6184191;23;20020;-82
2023/04/10 10:03:59;;;;;;;14.02;9.48;;;;;;;;;;6184069;23;20024;-83
2023/04/10 10:06:44;;;;;;;16.38;9.00;;;;;;;;;;6183375;23;20016;-81
2023/04/10 10:09:29;;;;;;;14.82;9.27;;;;;;;;;;6183419;23;20136;-82
2023/04/10 10:12:29;;;;;;;14.52;10.05;;;;;;;;;;6184111;23;20028;-81
2023/04/10 10:15:24;;;;;;;14.50;9.93;;;;;;;;;;6183998;23;20352;-82
2023/04/10 10:18:19;;;;;;;12.23;8.77;;;;;;;;;;6183879;23;20332;-82
2023/04/10 10:21:05;;;;;;;14.45;9.10;;;;;;;;;;6183991;23;20344;-83
2023/04/10 10:23:53;;;;;;;13.60;9.13;;;;;;;;;;6182010;23;20024;-82
2023/04/10 10:26:38;;;;;;;14.55;9.90;;;;;;;;;;6182201;23;20096;-82
2023/04/10 10:29:23;;;;;;;13.52;9.00;;;;;;;;;;6182736;23;20020;-81
2023/04/10 10:32:08;;;;;;;13.32;9.07;;;;;;;;;;6182258;23;20021;-82
2023/04/10 10:34:53;;;;;;;13.88;8.55;;;;;;;;;;6183158;23;20092;-81
2023/04/10 10:37:38;;;;;;;13.18;9.30;;;;;;;;;;6183065;23;20016;-82
2023/04/10 10:40:29;;;;;;;10.77;7.32;;;;;;;;;;6183850;23;20447;-81
2023/04/10 10:43:27;;;;;;;11.38;7.45;;;;;;;;;;6183772;23;20016;-82
2023/04/10 10:46:32;;;;;;;10.13;7.60;;;;;;;;;;6183723;23;20562;-82
2023/04/10 10:49:17;;;;;;;17.08;8.30;;;;;;;;;;6183775;23;20071;-81
2023/04/10 10:52:01;;;;;;;10.20;7.78;;;;;;;;;;6161550;23;20024;-82
2023/04/10 10:54:46;;;;;;;11.00;7.00;;;;;;;;;;6182958;23;20099;-81
2023/04/10 10:57:47;;;;;;;9.85;6.50;;;;;;;;;;6183083;23;20016;-84
2023/04/10 11:00:50;;;;;;;8.98;5.97;;;;;;;;;;6183463;23;20064;-84
2023/04/10 11:03:34;;;;;;;11.52;7.38;;;;;;;;;;6182932;23;20087;-82
2023/04/10 11:06:19;;;;;;;8.85;6.32;;;;;;;;;;6182452;23;20499;-82
2023/04/10 11:09:04;;;;;;;9.40;5.95;;;;;;;;;;6183613;23;20019;-81
2023/04/10 11:11:58;;;;;;;9.70;6.28;;;;;;;;;;6181601;23;20347;-82
2023/04/10 11:14:44;;;;;;;8.70;6.32;;;;;;;;;;6183020;23;20023;-82
2023/04/10 11:17:49;;;;;;;7.97;5.50;;;;;;;;;;6183591;23;20059;-81
2023/04/10 11:20:54;;;;;;;7.32;5.80;;;;;;;;;;6181936;23;20097;-83
2023/04/10 11:23:59;;;;;;;8.13;5.45;;;15.80;80.20;;;;;;6182878;23;20085;-82
2023/04/10 11:26:44;;;;;;;7.53;5.57;;;;;;;;;;6178201;23;20088;-82
2023/04/10 11:29:30;;;;;;;7.45;5.25;;;;;;;;;;6181171;23;20067;-81
2023/04/10 11:32:15;;;;;;;9.68;5.70;;;;;;;;;;6183370;23;20016;-81
2023/04/10 11:35:00;;;;;;;7.15;5.32;;;;;;;;;;6182885;23;20109;-82
2023/04/10 11:37:44;;;;;;;7.90;5.32;;;;;;;;;;6181460;23;20024;-87
2023/04/10 11:40:30;;;;;;;9.93;5.60;;;;;;;;;;6182150;23;20028;-84
2023/04/10 11:43:15;;;;;;;6.65;4.70;;;;;;;;;;6161325;23;20021;-83
2023/04/10 11:46:00;;;;;;;6.45;5.22;;;;;;;;;;6181375;23;20019;-82
2023/04/10 11:48:51;;;;;;;7.28;4.60;;;;;;;;;;6181518;23;20387;-81
2023/04/10 11:51:39;;;;;;;7.95;4.60;;;;;;;;;;6183273;23;20020;-84
2023/04/10 11:54:25;;;;;;;6.97;4.60;;;;;;;;;;6181583;23;20475;-83
2023/04/10 11:57:11;;;;;;;7.15;4.70;;;;;;;;;;6182781;23;20756;-80
2023/04/10 11:59:57;;;;;;;7.60;4.38;;;;;;;;;;6181194;23;20028;-82
2023/04/10 12:02:51;;;;;;;6.53;4.75;;;;;;;;;;6182686;23;20034;-84
2023/04/10 12:05:48;;;;;;;5.80;4.35;;;;;;;;;;6182079;23;20036;-83
2023/04/10 12:08:34;;;;;;;7.82;4.40;;;;;;;;;;6183400;23;20024;-82
2023/04/10 12:11:20;;;;;;;7.60;4.10;;;;;;;;;;6183679;23;20071;-82
2023/04/10 12:14:04;;;;;;;7.28;4.63;;;;;;;;;;6183209;23;20012;-81
2023/04/10 12:16:51;;;;;;;6.15;4.10;;;;;;;;;;6183171;23;20383;-81
2023/04/10 12:19:37;;;;;;;5.75;3.70;;;;;;;;;;6185088;23;20024;-82
2023/04/10 12:22:22;;;;;;;7.63;4.50;;;;;;;;;;6183759;23;20486;-82
2023/04/10 12:25:11;;;;;;;9.60;4.13;;;;;;;;;;6183061;23;20020;-83
2023/04/10 12:27:56;;;;;;;5.65;3.80;;;;;;;;;;6183610;23;20450;-82
2023/04/10 12:30:45;;;;;;;6.05;3.88;;;;;;;;;;6183993;23;20016;-82
2023/04/10 12:33:30;;;;;;;7.63;4.30;;;;;;;;;;6183045;23;20027;-82
2023/04/10 12:36:22;;;;;;;5.68;4.03;;;;;;;;;;6162144;23;20055;-83
2023/04/10 12:39:21;;;;;;;6.25;4.22;;;;;;;;;;6183471;23;20020;-82
2023/04/10 12:42:20;;;;;;;6.32;4.30;;;;;;;;;;6182239;23;20087;-82
2023/04/10 12:45:05;;;;;;;6.97;4.38;;;;;;;;;;6182247;23;20012;-81
2023/04/10 12:47:53;;;;;;;6.65;4.30;;;;;;;;;;6181997;23;20023;-85
2023/04/10 12:50:47;;;;;;;8.48;4.30;;;;;;;;;;6184096;23;20340;-81
2023/04/10 12:53:42;;;;;;;6.88;4.13;;;;;;;;;;6182832;23;20504;-80
2023/04/10 12:56:27;;;;;;;6.15;3.90;;;;;;;;;;6183964;23;20031;-81
2023/04/10 12:59:11;;;;;;;6.88;4.40;;;;;;;;;;6182027;23;20016;-82
2023/04/10 13:01:56;;;;;;;5.95;4.10;;;;;;;;;;6183302;23;20024;-81
2023/04/10 13:04:40;;;;;;;6.72;4.45;;;;;;;;;;6182645;23;20047;-81
2023/04/10 13:07:25;;;;;;;7.00;3.75;;;;;;;;;;6183994;23;20016;-83
2023/04/10 13:10:10;;;;;;;8.05;4.15;;;;;;;;;;6177607;23;20079;-81
2023/04/10 13:12:54;;;;;;;5.93;4.45;;;;;;;;;;6180774;23;20023;-80
2023/04/10 13:15:39;;;;;;;9.32;4.00;;;;;;;;;;6161061;23;20063;-81
2023/04/10 13:18:27;;;;;;;6.57;4.00;;;;;;;;;;6181470;23;20112;-83
2023/04/10 13:21:17;;;;;;;5.53;3.90;;;;;;;;;;6182610;23;20020;-81
2023/04/10 13:24:02;;;;;;;6.50;4.80;;;;;;;;;;6181249;23;20067;-82
2023/04/10 13:26:46;;;;;;;6.78;4.20;;;;;;;;;;6182209;23;20020;-81
2023/04/10 13:29:31;;;;;;;6.47;4.70;;;;;;;;;;6182489;23;20352;-81
2023/04/10 13:32:15;;;;;;;5.80;4.03;;;;;;;;;;6182297;23;20403;-81
2023/04/10 13:35:00;;;;;;;6.22;4.68;;;;;;;;;;6181281;23;20074;-80
2023/04/10 13:37:44;;;;;;;6.10;4.47;;;;;;;;;;6161156;23;20071;-80
2023/04/10 13:40:29;;;;;;;6.80;4.30;;;;;;;;;;6183590;23;20088;-81
2023/04/10 13:43:14;;;;;;;6.70;4.30;;;;;;;;;;6181392;23;20079;-81
2023/04/10 13:45:58;;;;;;;6.30;4.57;;;;;;;;;;6160480;23;20301;-83
2023/04/10 13:48:43;;;;;;;6.50;4.40;;;;;;;;;;6182464;23;20087;-84
2023/04/10 13:51:28;;;;;;;7.50;4.60;;;;;;;;;;6183471;23;20447;-81
2023/04/10 13:54:15;;;;;;;7.97;4.53;;;;;;;;;;6182893;23;20032;-82
2023/04/10 13:57:01;;;;;;;5.47;4.30;;;;;;;;;;6182647;23;20015;-84
2023/04/10 13:59:46;;;;;;;7.35;4.05;;;;;;;;;;6181957;23;20044;-84
2023/04/10 14:02:34;;;;;;;7.32;4.05;;;;;;;;;;6182150;23;20024;-82
2023/04/10 14:05:19;;;;;;;7.00;3.88;;;;;;;;;;6180330;23;20015;-84
2023/04/10 14:08:03;;;;;;;5.50;4.03;;;;;;;;;;6159924;23;20150;-85
2023/04/10 14:10:51;;;;;;;7.05;4.00;;;;;;;;;;6181327;23;20027;-82
2023/04/10 14:13:36;;;;;;;6.93;4.22;;;;;;;;;;6182521;23;20043;-84
2023/04/10 14:16:21;;;;;;;6.43;4.03;;;;;;;;;;6181764;23;20470;-84
2023/04/10 14:19:05;;;;;;;7.00;4.30;;;;;;;;;;6159730;23;20494;-82
2023/04/10 14:21:50;;;;;;;5.25;3.78;;;;;;;;;;6182569;23;20051;-82
2023/04/10 14:24:35;;;;;;;8.38;5.28;;;;;;;;;;6182652;23;20039;-82
2023/04/10 14:27:19;;;;;;;9.75;4.82;;;;;;;;;;6180638;23;20019;-83
2023/04/10 14:30:05;;;;;;;9.00;4.40;;;;;;;;;;6180520;23;20048;-83
2023/04/10 14:32:49;;;;;;;7.03;4.53;;;;;;;;;;6160397;23;20088;-82
2023/04/10 14:35:34;;;;;;;8.20;4.28;;;;;;;;;;6181138;23;20063;-82
2023/04/10 14:38:19;;;;;;;7.22;4.32;;;;;;;;;;6181136;23;20024;-83
2023/04/10 14:41:03;;;;;;;6.95;3.95;;;;;;;;;;6181599;23;20101;-84
2023/04/10 14:43:48;;;;;;;6.63;4.65;;;;;;;;;;6181232;23;20020;-82
2023/04/10 14:46:32;;;;;;;10.02;4.18;;;;;;;;;;6182770;23;20012;-82
2023/04/10 14:49:17;;;;;;;5.88;3.90;;;;;;;;;;6182455;23;20027;-82
2023/04/10 14:52:02;;;;;;;8.18;4.47;;;;;;;;;;6182671;23;20027;-84
2023/04/10 14:54:46;;;;;;;6.18;3.97;;;;;;;;;;6183155;23;20020;-82
2023/04/10 14:57:31;;;;;;;6.05;4.10;;;;;;;;;;6160770;23;20067;-82
2023/04/10 15:00:15;;;;;;;6.80;3.92;;;;;;;;;;6182012;23;20440;-83
2023/04/10 15:03:00;;;;;;;5.88;4.03;;;;;;;;;;6183694;23;20055;-82
2023/04/10 15:05:45;;;;;;;6.18;4.05;;;;;;;;;;6184669;23;20016;-83
2023/04/10 15:08:29;;;;;;;7.93;4.50;;;;;;;;;;6181576;23;20136;-82
2023/04/10 15:11:14;;;;;;;5.63;4.15;;;;;;;;;;6182505;23;20380;-82
2023/04/10 15:14:00;;;;;;;6.15;3.95;;;;;;;;;;6183452;23;20024;-82
2023/04/10 15:16:46;;;;;;;7.03;4.05;;;;;;;;;;6183478;23;20463;-82
2023/04/10 15:19:31;;;;;;;6.80;4.32;;;;;;;;;;6183105;23;20024;-83
2023/04/10 15:22:16;;;;;;;7.85;4.28;;;;;;;;;;6182755;23;20036;-83
2023/04/10 15:25:00;;;;;;;9.38;4.20;;;;;;;;;;6183369;23;20443;-81
2023/04/10 15:27:45;;;;;;;5.90;4.18;;;;;;;;;;6183245;23;20102;-82
2023/04/10 15:30:30;;;;;;;6.65;3.97;;;;;;;;;;6181453;23;20016;-83
2023/04/10 15:33:14;;;;;;;6.20;3.88;;;;;;;;;;6181424;23;20016;-84
2023/04/10 15:35:59;;;;;;;7.00;4.47;;;;;;;;;;6182984;23;20067;-84
2023/04/10 15:38:43;;;;;;;7.43;4.78;;;;;;;;;;6181952;23;20029;-83
2023/04/10 15:41:29;;;;;;;7.75;4.40;;;;;;;;;;6182532;23;20352;-84
2023/04/10 15:44:13;;;;;;;7.00;4.90;;;;;;;;;;6183456;23;20016;-82
2023/04/10 15:46:58;;;;;;;8.73;5.28;;;;;;;;;;6182697;23;20451;-82
2023/04/10 15:49:42;;;;;;;6.38;4.25;;;;;;;;;;6184259;23;20024;-84
2023/04/10 15:52:28;;;;;;;6.65;4.70;;;;;;;;;;6183917;23;20020;-82
2023/04/10 15:55:13;;;;;;;7.38;3.92;;;;;;;;;;6161345;23;20023;-88
2023/04/10 15:57:57;;;;;;;8.55;4.55;;;;;;;;;;6184064;23;20131;-84
2023/04/10 16:00:42;;;;;;;7.10;4.20;;;;;;;;;;6183132;23;20019;-84
2023/04/10 16:03:26;;;;;;;6.10;4.35;;;;;;;;;;6183851;23;20071;-83
2023/04/10 16:06:11;;;;;;;7.38;4.13;;;;;;;;;;6184403;23;20093;-86
2023/04/10 16:08:55;;;;;;;6.07;4.03;;;;;;;;;;6184487;23;20059;-85
2023/04/10 16:11:40;;;;;;;6.55;4.05;;;;;;;;;;6184533;23;20083;-83
2023/04/10 16:14:27;;;;;;;7.00;4.55;;;;;;;;;;6182603;23;20396;-84